createdAt,value
2023-04-05T00:01:34.758Z,101891.69
2023-04-05T00:04:02.559Z,101888.53
2023-04-05T00:06:30.454Z,101886.66
2023-04-05T00:08:58.127Z,101879.34
2023-04-05T00:11:26.009Z,101875.59
2023-04-05T00:13:52.398Z,101874.28
2023-04-05T00:16:19.556Z,101868.63
2023-04-05T00:18:51.505Z,101879.75
2023-04-05T00:21:22.353Z,101874.13
2023-04-05T00:23:58.405Z,101873.56
2023-04-05T00:26:25.325Z,101874.94
2023-04-05T00:28:52.564Z,101867.94
2023-04-05T00:31:19.135Z,101866.69
2023-04-05T00:33:46.105Z,101866.94
2023-04-05T00:36:16.194Z,101864.50
2023-04-05T00:38:44.147Z,101867.16
2023-04-05T00:41:11.696Z,101869.16
2023-04-05T00:43:38.334Z,101872.97
2023-04-05T00:46:06.130Z,101881.56
2023-04-05T00:48:33.474Z,101876.16
2023-04-05T00:51:00.003Z,101872.97
2023-04-05T00:53:27.524Z,101875.66
2023-04-05T00:55:54.639Z,101872.97
2023-04-05T00:58:22.198Z,101874.81
2023-04-05T01:01:02.680Z,101874.94
2023-04-05T01:03:32.526Z,101870.94
2023-04-05T01:06:14.408Z,101874.03
2023-04-05T01:09:08.994Z,101864.75
2023-04-05T01:11:37.836Z,101856.09
2023-04-05T01:14:04.249Z,101853.97
2023-04-05T01:16:30.733Z,101854.13
2023-04-05T01:18:58.290Z,101847.72
2023-04-05T01:21:39.915Z,101855.94
2023-04-05T01:24:18.290Z,101863.44
2023-04-05T01:27:01.007Z,101860.59
2023-04-05T01:29:46.132Z,101855.38
2023-04-05T01:32:30.060Z,101849.69
2023-04-05T01:35:08.744Z,101854.41
2023-04-05T01:37:36.438Z,101852.94
2023-04-05T01:40:04.656Z,101853.81
2023-04-05T01:42:31.318Z,101841.88
2023-04-05T01:44:58.372Z,101848.44
2023-04-05T01:47:24.945Z,101846.78
2023-04-05T01:49:51.408Z,101838.41
2023-04-05T01:52:17.776Z,101847.50
2023-04-05T01:54:44.285Z,101843.44
2023-04-05T01:57:10.729Z,101839.84
2023-04-05T01:59:37.119Z,101841.16
2023-04-05T02:02:04.085Z,101839.47
2023-04-05T02:04:30.649Z,101834.16
2023-04-05T02:06:57.035Z,101832.19
2023-04-05T02:09:23.377Z,101824.28
2023-04-05T02:11:49.887Z,101832.19
2023-04-05T02:14:16.411Z,101835.41
2023-04-05T02:16:43.135Z,101826.53
2023-04-05T02:19:09.659Z,101837.06
2023-04-05T02:21:36.735Z,101834.66
2023-04-05T02:24:03.143Z,101831.91
2023-04-05T02:26:29.553Z,101833.59
2023-04-05T02:28:55.915Z,101823.63
2023-04-05T02:31:22.254Z,101823.16
2023-04-05T02:33:49.302Z,101827.00
2023-04-05T02:36:15.801Z,101821.97
2023-04-05T02:38:42.115Z,101826.84
2023-04-05T02:41:10.602Z,101821.00
2023-04-05T02:43:37.691Z,101834.97
2023-04-05T02:46:04.155Z,101829.78
2023-04-05T02:48:30.743Z,101829.28
2023-04-05T02:50:57.063Z,101832.50
2023-04-05T02:53:23.660Z,101823.13
2023-04-05T02:55:57.288Z,101819.63
2023-04-05T02:58:24.131Z,101827.00
2023-04-05T03:00:52.895Z,101826.16
2023-04-05T03:03:20.278Z,101830.19
2023-04-05T03:05:48.562Z,101832.22
2023-04-05T03:08:23.637Z,101829.44
2023-04-05T03:10:54.150Z,101831.28
2023-04-05T03:13:20.471Z,101829.25
2023-04-05T03:15:46.813Z,101829.13
2023-04-05T03:18:13.282Z,101820.22
2023-04-05T03:20:40.280Z,101825.28
2023-04-05T03:23:09.870Z,101821.44
2023-04-05T03:25:40.408Z,101820.25
2023-04-05T03:28:08.586Z,101823.78
2023-04-05T03:30:35.898Z,101823.09
2023-04-05T03:33:03.111Z,101827.13
2023-04-05T03:35:30.255Z,101818.94
2023-04-05T03:37:57.160Z,101824.97
2023-04-05T03:40:24.574Z,101818.94
2023-04-05T03:42:51.137Z,101820.09
2023-04-05T03:45:23.091Z,101820.28
2023-04-05T03:47:51.118Z,101813.91
2023-04-05T03:50:17.626Z,101810.75
2023-04-05T03:52:44.021Z,101816.59
2023-04-05T03:55:10.469Z,101807.22
2023-04-05T03:57:38.932Z,101809.56
2023-04-05T04:00:14.109Z,101800.66
2023-04-05T04:02:50.249Z,101805.88
2023-04-05T04:05:17.903Z,101804.19
2023-04-05T04:07:44.929Z,101807.38
2023-04-05T04:10:17.699Z,101802.84
2023-04-05T04:12:44.869Z,101795.16
2023-04-05T04:15:12.317Z,101791.97
2023-04-05T04:17:39.633Z,101800.84
2023-04-05T04:20:12.993Z,101803.16
2023-04-05T04:22:40.608Z,101798.16
2023-04-05T04:25:12.815Z,101807.69
2023-04-05T04:27:42.518Z,101806.88
2023-04-05T04:30:13.720Z,101796.81
2023-04-05T04:32:57.915Z,101804.50
2023-04-05T04:35:26.300Z,101800.47
2023-04-05T04:38:03.575Z,101810.22
2023-04-05T04:40:39.027Z,101801.16
2023-04-05T04:43:18.780Z,101807.19
2023-04-05T04:45:49.418Z,101800.50
2023-04-05T04:48:16.902Z,101802.34
2023-04-05T04:50:44.470Z,101807.19
2023-04-05T04:53:12.087Z,101800.84
2023-04-05T04:55:39.149Z,101815.72
2023-04-05T04:58:09.685Z,101814.88
2023-04-05T05:00:38.386Z,101817.06
2023-04-05T05:03:04.891Z,101810.00
2023-04-05T05:05:31.276Z,101818.03
2023-04-05T05:07:57.622Z,101818.16
2023-04-05T05:10:24.166Z,101820.03
2023-04-05T05:12:51.637Z,101821.22
2023-04-05T05:15:18.821Z,101815.50
2023-04-05T05:17:45.161Z,101828.56
2023-04-05T05:20:12.686Z,101825.75
2023-04-05T05:22:40.001Z,101821.53
2023-04-05T05:25:08.627Z,101824.38
2023-04-05T05:27:35.011Z,101829.06
2023-04-05T05:30:02.007Z,101819.03
2023-04-05T05:32:28.575Z,101819.34
2023-04-05T05:34:55.169Z,101818.81
2023-04-05T05:37:32.726Z,101822.41
2023-04-05T05:39:59.543Z,101819.88
2023-04-05T05:42:27.277Z,101813.53
2023-04-05T05:44:54.069Z,101809.69
2023-04-05T05:47:20.588Z,101817.56
2023-04-05T05:49:47.782Z,101822.25
2023-04-05T05:52:14.321Z,101814.56
2023-04-05T05:54:41.009Z,101817.59
2023-04-05T05:57:07.363Z,101824.28
2023-04-05T05:59:33.978Z,101826.28
2023-04-05T06:02:00.670Z,101825.31
2023-04-05T06:04:28.959Z,101827.31
2023-04-05T06:06:55.842Z,101830.00
2023-04-05T06:09:23.293Z,101832.31
2023-04-05T06:11:56.537Z,101827.31
2023-04-05T06:14:24.922Z,101821.91
2023-04-05T06:16:51.722Z,101820.88
2023-04-05T06:19:18.135Z,101818.91
2023-04-05T06:21:44.467Z,101816.53
2023-04-05T06:24:10.815Z,101816.31
2023-04-05T06:26:37.194Z,101811.41
2023-04-05T06:29:03.527Z,101824.63
2023-04-05T06:31:34.826Z,101806.22
2023-04-05T06:34:01.882Z,101809.19
2023-04-05T06:36:31.886Z,101806.84
2023-04-05T06:38:58.315Z,101817.09
2023-04-05T06:41:24.910Z,101813.28
2023-04-05T06:43:51.291Z,101814.91
2023-04-05T06:46:17.785Z,101812.81
2023-04-05T06:48:44.526Z,101806.72
2023-04-05T06:51:10.943Z,101811.38
2023-04-05T06:53:37.361Z,101812.53
2023-04-05T06:56:03.873Z,101816.16
2023-04-05T06:58:30.777Z,101816.19
2023-04-05T07:00:57.318Z,101815.94
2023-04-05T07:03:23.760Z,101803.69
2023-04-05T07:05:52.146Z,101813.59
2023-04-05T07:08:20.010Z,101816.13
2023-04-05T07:10:46.910Z,101818.16
2023-04-05T07:13:13.524Z,101809.03
2023-04-05T07:15:39.908Z,101803.34
2023-04-05T07:18:06.761Z,101802.66
2023-04-05T07:20:33.193Z,101801.94
2023-04-05T07:22:59.535Z,101793.94
2023-04-05T07:25:25.930Z,101790.53
2023-04-05T07:27:52.640Z,101789.38
2023-04-05T07:30:19.086Z,101794.03
2023-04-05T07:32:45.774Z,101796.72
2023-04-05T07:35:12.214Z,101797.00
2023-04-05T07:37:38.721Z,101789.66
2023-04-05T07:40:06.235Z,101791.88
2023-04-05T07:42:33.549Z,101796.56
2023-04-05T07:44:59.854Z,101792.13
2023-04-05T07:47:26.238Z,101788.22
2023-04-05T07:49:52.702Z,101789.00
2023-04-05T07:52:19.102Z,101789.63
2023-04-05T07:54:45.850Z,101794.00
2023-04-05T07:57:19.289Z,101791.34
2023-04-05T07:59:46.096Z,101781.03
2023-04-05T08:02:14.990Z,101790.06
2023-04-05T08:04:41.776Z,101788.19
2023-04-05T08:07:08.215Z,101782.81
2023-04-05T08:09:36.185Z,101784.69
2023-04-05T08:12:02.912Z,101783.28
2023-04-05T08:14:29.500Z,101792.84
2023-04-05T08:16:55.911Z,101785.97
2023-04-05T08:19:22.319Z,101784.94
2023-04-05T08:21:48.698Z,101781.59
2023-04-05T08:24:15.294Z,101777.16
2023-04-05T08:26:43.284Z,101783.16
2023-04-05T08:29:09.818Z,101778.09
2023-04-05T08:31:36.622Z,101782.25
2023-04-05T08:34:03.640Z,101782.16
2023-04-05T08:36:30.035Z,101779.97
2023-04-05T08:38:57.004Z,101779.78
2023-04-05T08:41:27.232Z,101781.94
2023-04-05T08:44:02.249Z,101777.91
2023-04-05T08:46:34.487Z,101775.25
2023-04-05T08:49:07.216Z,101773.53
2023-04-05T08:51:36.489Z,101771.88
2023-04-05T08:54:04.856Z,101774.94
2023-04-05T08:56:33.541Z,101775.16
2023-04-05T08:59:05.786Z,101766.78
2023-04-05T09:01:34.092Z,101767.41
2023-04-05T09:04:14.062Z,101767.97
2023-04-05T09:06:40.497Z,101765.84
2023-04-05T09:09:08.261Z,101760.34
2023-04-05T09:11:36.002Z,101768.75
2023-04-05T09:14:06.764Z,101765.00
2023-04-05T09:16:41.448Z,101761.00
2023-04-05T09:19:09.189Z,101761.59
2023-04-05T09:22:04.695Z,101758.56
2023-04-05T09:24:36.975Z,101750.19
2023-04-05T09:27:06.092Z,101750.56
2023-04-05T09:29:32.478Z,101742.94
2023-04-05T09:32:01.027Z,101754.38
2023-04-05T09:34:27.440Z,101752.59
2023-04-05T09:36:54.719Z,101742.34
2023-04-05T09:39:29.214Z,101744.97
2023-04-05T09:42:06.946Z,101738.63
2023-04-05T09:44:57.094Z,101731.22
2023-04-05T09:47:27.191Z,101734.44
2023-04-05T09:49:53.727Z,101730.78
2023-04-05T09:52:25.582Z,101727.44
2023-04-05T09:54:55.393Z,101742.88
2023-04-05T09:57:32.524Z,101734.88
2023-04-05T09:59:58.897Z,101738.75
2023-04-05T10:02:25.875Z,101717.28
2023-04-05T10:04:52.443Z,101722.22
2023-04-05T10:07:19.873Z,101724.47
2023-04-05T10:09:48.463Z,101731.47
2023-04-05T10:12:26.453Z,101724.47
2023-04-05T10:14:53.354Z,101726.84
2023-04-05T10:17:26.977Z,101732.56
2023-04-05T10:20:16.934Z,101706.78
2023-04-05T10:22:52.366Z,101715.91
2023-04-05T10:25:27.776Z,101713.25
2023-04-05T10:28:00.770Z,101715.22
2023-04-05T10:30:34.973Z,101713.34
2023-04-05T10:33:15.157Z,101716.19
2023-04-05T10:36:03.048Z,101714.84
2023-04-05T10:38:32.236Z,101709.19
2023-04-05T10:41:18.943Z,101709.84
2023-04-05T10:43:46.562Z,101702.41
2023-04-05T10:46:19.444Z,101702.97
2023-04-05T10:49:12.515Z,101694.97
2023-04-05T10:51:39.247Z,101694.75
2023-04-05T10:54:08.484Z,101692.41
2023-04-05T10:56:34.993Z,101689.81
2023-04-05T10:59:02.350Z,101693.25
2023-04-05T11:01:29.334Z,101690.56
2023-04-05T11:03:55.939Z,101683.22
2023-04-05T11:06:32.327Z,101686.38
2023-04-05T11:09:11.553Z,101682.22
2023-04-05T11:11:43.519Z,101672.88
2023-04-05T11:14:23.516Z,101675.66
2023-04-05T11:16:56.620Z,101669.94
2023-04-05T11:19:47.344Z,101670.19
2023-04-05T11:22:24.593Z,101666.63
2023-04-05T11:25:03.049Z,101663.22
2023-04-05T11:27:36.979Z,101662.09
2023-04-05T11:30:05.365Z,101655.50
2023-04-05T11:32:45.556Z,101654.78
2023-04-05T11:35:17.752Z,101660.94
2023-04-05T11:38:02.579Z,101652.19
2023-04-05T11:40:33.804Z,101652.53
2023-04-05T11:43:09.931Z,101646.25
2023-04-05T11:45:38.085Z,101648.41
2023-04-05T11:48:09.110Z,101651.81
2023-04-05T11:50:41.816Z,101648.81
2023-04-05T11:53:13.516Z,101648.38
2023-04-05T11:55:51.061Z,101641.28
2023-04-05T11:58:23.142Z,101638.34
2023-04-05T12:01:03.782Z,101631.13
2023-04-05T12:03:30.746Z,101641.06
2023-04-05T12:05:58.997Z,101637.75
2023-04-05T12:08:38.239Z,101635.84
2023-04-05T12:11:08.878Z,101630.63
2023-04-05T12:13:35.831Z,101622.22
2023-04-05T12:16:06.907Z,101627.03
2023-04-05T12:18:35.011Z,101625.22
2023-04-05T12:21:06.443Z,101621.38
2023-04-05T12:23:34.179Z,101611.03
2023-04-05T12:26:01.033Z,101619.72
2023-04-05T12:28:54.069Z,101615.28
2023-04-05T12:31:39.849Z,101613.47
2023-04-05T12:34:07.076Z,101611.69
2023-04-05T12:36:33.910Z,101593.78
2023-04-05T12:39:01.595Z,101591.13
2023-04-05T12:41:31.836Z,101594.50
2023-04-05T12:44:01.733Z,101597.91
2023-04-05T12:46:42.210Z,101591.00
2023-04-05T12:49:12.962Z,101591.63
2023-04-05T12:51:46.468Z,101587.50
2023-04-05T12:54:22.182Z,101583.44
2023-04-05T12:56:54.301Z,101582.44
2023-04-05T12:59:21.706Z,101578.97
2023-04-05T13:01:48.508Z,101577.41
2023-04-05T13:04:16.822Z,101576.19
2023-04-05T13:06:47.057Z,101565.59
2023-04-05T13:09:13.709Z,101569.16
2023-04-05T13:11:40.137Z,101555.19
2023-04-05T13:14:07.146Z,101558.34
2023-04-05T13:16:33.545Z,101553.25
2023-04-05T13:19:00.097Z,101557.00
2023-04-05T13:21:27.165Z,101552.47
2023-04-05T13:23:53.546Z,101538.56
2023-04-05T13:26:19.870Z,101553.19
2023-04-05T13:28:46.166Z,101549.56
2023-04-05T13:31:14.457Z,101545.84
2023-04-05T13:33:42.140Z,101535.34
2023-04-05T13:36:08.901Z,101530.53
2023-04-05T13:38:35.272Z,101530.75
2023-04-05T13:41:01.661Z,101530.25
2023-04-05T13:43:28.121Z,101531.69
2023-04-05T13:45:54.543Z,101530.16
2023-04-05T13:48:20.930Z,101519.91
2023-04-05T13:50:47.275Z,101518.84
2023-04-05T13:53:13.740Z,101512.53
2023-04-05T13:55:40.144Z,101513.06
2023-04-05T13:58:06.743Z,101508.63
2023-04-05T14:00:33.092Z,101512.41
2023-04-05T14:02:59.600Z,101502.66
2023-04-05T14:05:26.111Z,101498.09
2023-04-05T14:07:52.639Z,101499.00
2023-04-05T14:10:21.525Z,101498.34
2023-04-05T14:12:48.031Z,101486.34
2023-04-05T14:15:14.577Z,101487.50
2023-04-05T14:17:41.173Z,101482.16
2023-04-05T14:20:08.290Z,101480.31
2023-04-05T14:22:34.698Z,101476.44
2023-04-05T14:25:01.327Z,101474.25
2023-04-05T14:27:28.401Z,101474.13
2023-04-05T14:29:58.233Z,101467.72
2023-04-05T14:32:25.496Z,101464.53
2023-04-05T14:34:52.236Z,101460.72
2023-04-05T14:37:18.693Z,101460.91
2023-04-05T14:39:45.160Z,101461.78
2023-04-05T14:42:11.541Z,101451.69
2023-04-05T14:44:38.805Z,101450.31
2023-04-05T14:47:05.669Z,101450.44
2023-04-05T14:49:32.101Z,101450.25
2023-04-05T14:51:58.591Z,101435.44
2023-04-05T14:54:25.195Z,101440.66
2023-04-05T14:56:51.710Z,101434.16
2023-04-05T14:59:18.299Z,101437.84
2023-04-05T15:01:46.849Z,101436.38
2023-04-05T15:04:13.379Z,101437.94
2023-04-05T15:06:39.802Z,101433.69
2023-04-05T15:09:06.481Z,101430.53
2023-04-05T15:11:35.577Z,101433.91
2023-04-05T15:14:02.038Z,101432.91
2023-04-05T15:16:30.124Z,101437.47
2023-04-05T15:18:58.811Z,101433.34
2023-04-05T15:21:25.758Z,101425.38
2023-04-05T15:23:52.302Z,101427.63
2023-04-05T15:26:18.700Z,101425.03
2023-04-05T15:28:45.322Z,101418.94
2023-04-05T15:31:11.773Z,101426.69
2023-04-05T15:33:38.178Z,101430.19
2023-04-05T15:36:04.808Z,101426.16
2023-04-05T15:38:31.237Z,101420.25
2023-04-05T15:40:57.867Z,101421.59
2023-04-05T15:43:24.637Z,101422.75
2023-04-05T15:45:51.182Z,101418.34
2023-04-05T15:48:17.774Z,101413.94
2023-04-05T15:50:44.380Z,101417.78
2023-04-05T15:53:10.802Z,101405.97
2023-04-05T15:55:37.156Z,101405.69
2023-04-05T15:58:03.631Z,101409.06
2023-04-05T16:00:30.364Z,101402.19
2023-04-05T16:03:00.519Z,101405.19
2023-04-05T16:05:27.393Z,101404.84
2023-04-05T16:07:54.138Z,101401.78
2023-04-05T16:10:20.832Z,101396.97
2023-04-05T16:12:47.262Z,101400.31
2023-04-05T16:15:14.395Z,101392.53
2023-04-05T16:17:41.028Z,101397.78
2023-04-05T16:20:07.878Z,101395.66
2023-04-05T16:22:34.296Z,101404.06
2023-04-05T16:25:00.726Z,101396.16
2023-04-05T16:27:27.224Z,101389.69
2023-04-05T16:29:53.817Z,101387.03
2023-04-05T16:32:20.330Z,101390.03
2023-04-05T16:34:46.814Z,101386.06
2023-04-05T16:37:13.388Z,101386.06
2023-04-05T16:39:39.835Z,101383.72
2023-04-05T16:42:06.305Z,101391.63
2023-04-05T16:44:32.734Z,101391.00
2023-04-05T16:46:59.256Z,101392.00
2023-04-05T16:49:25.777Z,101386.09
2023-04-05T16:51:52.254Z,101381.38
2023-04-05T16:54:18.755Z,101387.88
2023-04-05T16:56:45.380Z,101392.06
2023-04-05T16:59:12.042Z,101398.41
2023-04-05T17:01:38.646Z,101393.31
2023-04-05T17:04:05.406Z,101387.03
2023-04-05T17:06:32.446Z,101389.63
2023-04-05T17:08:58.959Z,101393.16
2023-04-05T17:11:26.140Z,101395.13
2023-04-05T17:13:52.529Z,101391.34
2023-04-05T17:16:19.085Z,101386.56
2023-04-05T17:18:45.767Z,101387.28
2023-04-05T17:21:12.438Z,101388.94
2023-04-05T17:23:40.004Z,101386.34
2023-04-05T17:26:06.379Z,101388.50
2023-04-05T17:28:33.270Z,101393.78
2023-04-05T17:31:00.426Z,101389.50
2023-04-05T17:33:28.184Z,101388.81
2023-04-05T17:35:54.984Z,101392.34
2023-04-05T17:38:21.447Z,101398.03
2023-04-05T17:40:47.977Z,101391.31
2023-04-05T17:43:14.378Z,101400.19
2023-04-05T17:45:41.118Z,101394.75
2023-04-05T17:48:07.652Z,101394.31
2023-04-05T17:50:36.061Z,101387.13
2023-04-05T17:53:02.751Z,101386.63
2023-04-05T17:55:29.149Z,101396.84
2023-04-05T17:57:55.734Z,101400.63
2023-04-05T18:00:22.384Z,101401.13
2023-04-05T18:02:48.985Z,101397.97
2023-04-05T18:05:18.307Z,101398.13
2023-04-05T18:07:44.630Z,101399.56
2023-04-05T18:10:11.418Z,101402.06
2023-04-05T18:12:38.043Z,101405.75
2023-04-05T18:15:04.809Z,101406.47
2023-04-05T18:17:31.212Z,101407.53
2023-04-05T18:19:57.802Z,101406.47
2023-04-05T18:22:24.209Z,101412.16
2023-04-05T18:24:50.629Z,101416.78
2023-04-05T18:27:17.009Z,101409.88
2023-04-05T18:29:44.003Z,101410.16
2023-04-05T18:32:10.740Z,101415.13
2023-04-05T18:34:37.307Z,101416.41
2023-04-05T18:37:04.267Z,101420.19
2023-04-05T18:39:30.847Z,101417.84
2023-04-05T18:41:57.618Z,101418.78
2023-04-05T18:44:24.174Z,101423.41
2023-04-05T18:46:50.819Z,101428.47
2023-04-05T18:49:19.061Z,101420.09
2023-04-05T18:51:45.656Z,101426.34
2023-04-05T18:54:12.393Z,101421.44
2023-04-05T18:56:38.831Z,101426.97
2023-04-05T18:59:05.628Z,101433.34
2023-04-05T19:01:32.342Z,101425.97
2023-04-05T19:04:00.461Z,101433.38
2023-04-05T19:06:28.062Z,101436.13
2023-04-05T19:08:54.401Z,101432.38
2023-04-05T19:11:21.984Z,101441.84
2023-04-05T19:13:48.534Z,101443.53
2023-04-05T19:16:17.255Z,101443.78
2023-04-05T19:18:44.244Z,101444.09
2023-04-05T19:21:10.797Z,101444.38
2023-04-05T19:23:37.250Z,101446.31
2023-04-05T19:26:03.693Z,101453.25
2023-04-05T19:28:30.228Z,101442.25
2023-04-05T19:30:56.683Z,101449.63
2023-04-05T19:33:23.325Z,101443.66
2023-04-05T19:35:50.397Z,101450.34
2023-04-05T19:38:16.858Z,101451.34
2023-04-05T19:40:43.430Z,101447.25
2023-04-05T19:43:11.440Z,101448.06
2023-04-05T19:45:37.978Z,101450.22
2023-04-05T19:48:27.657Z,101444.47
2023-04-05T19:50:56.276Z,101440.75
2023-04-05T19:53:40.681Z,101450.81
2023-04-05T19:56:12.518Z,101443.38
2023-04-05T19:58:38.943Z,101445.28
2023-04-05T20:01:07.303Z,101440.13
2023-04-05T20:03:39.380Z,101452.88
2023-04-05T20:06:10.045Z,101446.59
2023-04-05T20:08:42.059Z,101450.19
2023-04-05T20:11:12.732Z,101449.19
2023-04-05T20:13:45.297Z,101451.06
2023-04-05T20:16:13.139Z,101449.84
2023-04-05T20:18:40.498Z,101446.31
2023-04-05T20:21:07.049Z,101449.44
2023-04-05T20:23:35.840Z,101441.09
2023-04-05T20:26:05.032Z,101446.50
2023-04-05T20:28:38.231Z,101444.44
2023-04-05T20:31:09.866Z,101446.13
2023-04-05T20:34:02.642Z,101438.66
2023-04-05T20:36:35.805Z,101444.31
2023-04-05T20:39:04.729Z,101445.34
2023-04-05T20:41:33.899Z,101439.94
2023-04-05T20:44:00.753Z,101442.44
2023-04-05T20:46:28.085Z,101438.69
2023-04-05T20:48:54.994Z,101443.69
2023-04-05T20:51:21.408Z,101438.69
2023-04-05T20:53:47.856Z,101436.81
2023-04-05T20:56:14.242Z,101435.78
2023-04-05T20:58:41.077Z,101432.66
2023-04-05T21:01:08.331Z,101431.59
2023-04-05T21:03:39.694Z,101431.81
2023-04-05T21:06:08.220Z,101433.66
2023-04-05T21:08:37.125Z,101433.88
2023-04-05T21:11:04.433Z,101419.09
2023-04-05T21:13:30.882Z,101424.47
2023-04-05T21:15:58.273Z,101422.78
2023-04-05T21:18:25.537Z,101422.16
2023-04-05T21:20:53.297Z,101420.09
2023-04-05T21:23:23.205Z,101423.59
2023-04-05T21:25:50.169Z,101412.56
2023-04-05T21:28:16.662Z,101419.59
2023-04-05T21:30:43.748Z,101422.47
2023-04-05T21:33:10.630Z,101413.13
2023-04-05T21:35:37.672Z,101416.88
2023-04-05T21:38:04.466Z,101412.50
2023-04-05T21:40:31.682Z,101416.88
2023-04-05T21:42:58.809Z,101420.22
2023-04-05T21:45:25.639Z,101407.06
2023-04-05T21:47:52.470Z,101416.03
2023-04-05T21:50:19.330Z,101412.56
2023-04-05T21:52:45.892Z,101417.50
2023-04-05T21:55:12.779Z,101407.16
2023-04-05T21:57:39.217Z,101405.38
2023-04-05T22:00:10.888Z,101412.81
2023-04-05T22:02:40.746Z,101413.25
2023-04-05T22:05:08.187Z,101415.69
2023-04-05T22:07:35.361Z,101401.38
2023-04-05T22:10:02.501Z,101406.97
2023-04-05T22:12:29.093Z,101402.75
2023-04-05T22:14:55.709Z,101401.47
2023-04-05T22:17:22.121Z,101409.97
2023-04-05T22:19:48.655Z,101411.19
2023-04-05T22:22:16.477Z,101404.72
2023-04-05T22:24:43.150Z,101401.34
2023-04-05T22:27:10.742Z,101403.56
2023-04-05T22:29:37.320Z,101409.97
2023-04-05T22:32:04.193Z,101415.75
2023-04-05T22:34:30.739Z,101412.00
2023-04-05T22:36:57.094Z,101406.56
2023-04-05T22:39:23.648Z,101411.81
2023-04-05T22:41:50.084Z,101413.75
2023-04-05T22:44:16.462Z,101402.72
2023-04-05T22:46:43.048Z,101405.16
2023-04-05T22:49:09.656Z,101402.22
2023-04-05T22:51:36.261Z,101403.50
2023-04-05T22:54:02.613Z,101409.34
2023-04-05T22:56:29.148Z,101399.44
2023-04-05T22:58:55.583Z,101395.94
2023-04-05T23:01:22.197Z,101401.94
2023-04-05T23:03:48.599Z,101397.78
2023-04-05T23:06:15.640Z,101401.03
2023-04-05T23:08:42.044Z,101397.47
2023-04-05T23:11:08.504Z,101388.63
2023-04-05T23:13:35.082Z,101391.44
2023-04-05T23:16:01.643Z,101387.47
2023-04-05T23:18:28.151Z,101389.53
2023-04-05T23:20:54.672Z,101391.81
2023-04-05T23:23:21.198Z,101391.63
2023-04-05T23:25:47.667Z,101392.47
2023-04-05T23:28:14.166Z,101393.88
2023-04-05T23:30:40.721Z,101393.94
2023-04-05T23:33:07.306Z,101395.03
2023-04-05T23:35:33.871Z,101393.63
2023-04-05T23:38:00.240Z,101387.47
2023-04-05T23:40:26.714Z,101391.63
2023-04-05T23:42:53.292Z,101378.00
2023-04-05T23:45:19.752Z,101381.78
2023-04-05T23:47:46.383Z,101373.25
2023-04-05T23:50:13.042Z,101382.09
2023-04-05T23:52:39.504Z,101376.09
2023-04-05T23:55:06.473Z,101375.81
2023-04-05T23:57:32.811Z,101375.44
2023-04-05T23:59:59.210Z,101377.84
